createdAt,value
2023-01-26T00:00:07.214Z,13.50
2023-01-26T00:02:34.952Z,17.97
2023-01-26T00:05:04.193Z,15.07
2023-01-26T00:07:31.696Z,19.00
2023-01-26T00:09:59.274Z,16.33
2023-01-26T00:12:26.746Z,16.67
2023-01-26T00:14:54.329Z,15.90
2023-01-26T00:17:28.208Z,16.87
2023-01-26T00:19:57.693Z,17.67
2023-01-26T00:22:28.102Z,15.53
2023-01-26T00:24:55.601Z,16.37
2023-01-26T00:27:23.211Z,17.00
2023-01-26T00:29:50.795Z,18.07
2023-01-26T00:32:18.285Z,17.27
2023-01-26T00:34:45.991Z,17.33
2023-01-26T00:37:14.468Z,18.20
2023-01-26T00:39:43.478Z,16.47
2023-01-26T00:42:13.768Z,18.63
2023-01-26T00:44:43.840Z,18.43
2023-01-26T00:47:13.454Z,16.40
2023-01-26T00:49:41.245Z,16.50
2023-01-26T00:52:08.873Z,18.50
2023-01-26T00:54:36.457Z,18.97
2023-01-26T00:57:05.521Z,20.30
2023-01-26T00:59:33.001Z,19.97
2023-01-26T01:02:06.655Z,19.00
2023-01-26T01:04:34.351Z,15.50
2023-01-26T01:07:01.876Z,17.87
2023-01-26T01:09:29.761Z,19.60
2023-01-26T01:11:57.322Z,20.30
2023-01-26T01:14:26.511Z,20.60
2023-01-26T01:16:53.997Z,20.03
2023-01-26T01:19:21.566Z,18.50
2023-01-26T01:21:49.275Z,17.43
2023-01-26T01:24:17.123Z,19.50
2023-01-26T01:26:44.663Z,20.80
2023-01-26T01:29:15.046Z,21.23
2023-01-26T01:31:44.276Z,20.93
2023-01-26T01:34:11.855Z,20.67
2023-01-26T01:36:39.382Z,18.27
2023-01-26T01:39:06.976Z,19.70
2023-01-26T01:41:34.568Z,20.73
2023-01-26T01:44:17.609Z,20.43
2023-01-26T01:46:58.046Z,21.57
2023-01-26T01:49:29.058Z,17.50
2023-01-26T01:52:01.007Z,17.77
2023-01-26T01:54:34.451Z,21.23
2023-01-26T01:57:05.552Z,19.87
2023-01-26T01:59:34.396Z,19.97
2023-01-26T02:02:03.799Z,22.07
2023-01-26T02:04:31.508Z,19.17
2023-01-26T02:07:04.923Z,20.70
2023-01-26T02:09:53.801Z,17.90
2023-01-26T02:12:27.540Z,18.43
2023-01-26T02:14:55.102Z,19.30
2023-01-26T02:17:24.142Z,23.43
2023-01-26T02:19:59.362Z,18.10
2023-01-26T02:22:36.350Z,17.47
2023-01-26T02:25:11.342Z,21.33
2023-01-26T02:27:40.865Z,19.70
2023-01-26T02:30:11.177Z,19.00
2023-01-26T02:32:39.826Z,21.13
2023-01-26T02:35:08.380Z,19.23
2023-01-26T02:37:36.072Z,22.60
2023-01-26T02:40:12.156Z,18.83
2023-01-26T02:42:41.811Z,18.53
2023-01-26T02:45:10.710Z,19.97
2023-01-26T02:47:38.181Z,19.93
2023-01-26T02:50:05.799Z,18.13
2023-01-26T02:52:33.914Z,20.47
2023-01-26T02:55:23.130Z,22.43
2023-01-26T02:57:53.590Z,18.30
2023-01-26T03:00:24.277Z,20.10
2023-01-26T03:02:54.339Z,19.70
2023-01-26T03:05:22.264Z,19.27
2023-01-26T03:07:51.222Z,15.77
2023-01-26T03:10:24.118Z,18.00
2023-01-26T03:12:54.502Z,18.30
2023-01-26T03:15:43.718Z,20.00
2023-01-26T03:18:32.785Z,19.30
2023-01-26T03:21:18.624Z,19.80
2023-01-26T03:24:03.916Z,18.20
2023-01-26T03:26:51.149Z,18.00
2023-01-26T03:29:21.406Z,20.67
2023-01-26T03:31:49.724Z,21.70
2023-01-26T03:34:18.310Z,19.27
2023-01-26T03:36:47.493Z,19.00
2023-01-26T03:39:30.276Z,20.70
2023-01-26T03:42:15.558Z,20.47
2023-01-26T03:45:02.163Z,19.40
2023-01-26T03:47:48.052Z,18.30
2023-01-26T03:50:34.356Z,19.57
2023-01-26T03:53:19.572Z,18.93
2023-01-26T03:56:04.692Z,20.00
2023-01-26T03:58:32.205Z,20.37
2023-01-26T04:01:01.559Z,20.00
2023-01-26T04:03:47.811Z,19.10
2023-01-26T04:06:32.762Z,18.97
2023-01-26T04:09:00.293Z,19.33
2023-01-26T04:11:27.842Z,23.80
2023-01-26T04:14:13.641Z,18.97
2023-01-26T04:17:00.238Z,18.97
2023-01-26T04:19:45.363Z,17.10
2023-01-26T04:22:14.969Z,18.77
2023-01-26T04:24:44.297Z,19.17
2023-01-26T04:27:12.332Z,16.03
2023-01-26T04:29:41.893Z,17.20
2023-01-26T04:32:10.800Z,15.20
2023-01-26T04:34:38.509Z,16.80
2023-01-26T04:37:13.633Z,18.07
2023-01-26T04:39:46.046Z,19.47
2023-01-26T04:42:13.787Z,17.83
2023-01-26T04:44:41.338Z,20.40
2023-01-26T04:47:11.934Z,18.47
2023-01-26T04:49:39.626Z,19.17
2023-01-26T04:52:07.413Z,15.60
2023-01-26T04:54:35.561Z,19.80
2023-01-26T04:57:03.083Z,16.40
2023-01-26T04:59:30.881Z,20.40
2023-01-26T05:02:01.036Z,16.50
2023-01-26T05:04:30.003Z,17.47
2023-01-26T05:06:57.576Z,19.00
2023-01-26T05:09:26.906Z,17.50
2023-01-26T05:12:31.026Z,16.93
2023-01-26T05:15:31.257Z,17.10
2023-01-26T05:18:12.798Z,15.40
2023-01-26T05:20:50.304Z,16.30
2023-01-26T05:23:22.176Z,18.90
2023-01-26T05:26:11.247Z,19.17
2023-01-26T05:29:03.324Z,17.10
2023-01-26T05:31:33.613Z,16.37
2023-01-26T05:34:06.569Z,15.80
2023-01-26T05:36:47.877Z,16.83
2023-01-26T05:39:25.472Z,16.80
2023-01-26T05:42:08.453Z,18.97
2023-01-26T05:45:00.501Z,20.50
2023-01-26T05:47:49.976Z,19.83
2023-01-26T05:50:27.366Z,17.87
2023-01-26T05:53:20.110Z,17.17
2023-01-26T05:56:01.328Z,14.50
2023-01-26T05:58:42.676Z,19.13
2023-01-26T06:01:24.893Z,15.50
2023-01-26T06:04:01.674Z,14.57
2023-01-26T06:06:51.042Z,16.17
2023-01-26T06:09:27.565Z,16.73
2023-01-26T06:12:24.132Z,15.73
2023-01-26T06:15:04.298Z,14.97
2023-01-26T06:17:46.710Z,16.73
2023-01-26T06:20:21.590Z,14.37
2023-01-26T06:23:13.247Z,20.10
2023-01-26T06:25:53.063Z,14.40
2023-01-26T06:28:24.118Z,15.20
2023-01-26T06:30:53.887Z,18.43
2023-01-26T06:33:27.602Z,15.17
2023-01-26T06:36:06.189Z,16.90
2023-01-26T06:38:49.819Z,16.80
2023-01-26T06:41:33.302Z,15.37
2023-01-26T06:44:22.643Z,17.03
2023-01-26T06:46:51.632Z,15.03
2023-01-26T06:49:20.971Z,17.80
2023-01-26T06:51:59.659Z,17.63
2023-01-26T06:54:56.083Z,17.07
2023-01-26T06:57:52.349Z,16.67
2023-01-26T07:00:55.507Z,19.73
2023-01-26T07:03:42.134Z,17.27
2023-01-26T07:06:19.836Z,16.90
2023-01-26T07:08:54.080Z,17.97
2023-01-26T07:11:33.477Z,16.17
2023-01-26T07:14:08.404Z,16.43
2023-01-26T07:16:46.283Z,17.50
2023-01-26T07:19:23.010Z,15.37
2023-01-26T07:21:55.560Z,15.53
2023-01-26T07:24:44.923Z,16.43
2023-01-26T07:27:30.917Z,13.47
2023-01-26T07:30:08.386Z,16.47
2023-01-26T07:32:38.304Z,16.90
2023-01-26T07:35:06.986Z,14.67
2023-01-26T07:37:35.616Z,16.40
2023-01-26T07:40:03.608Z,15.80
2023-01-26T07:42:32.010Z,18.10
2023-01-26T07:45:08.450Z,17.90
2023-01-26T07:47:37.512Z,15.10
2023-01-26T07:50:07.149Z,15.63
2023-01-26T07:52:34.617Z,15.00
2023-01-26T07:55:02.096Z,15.80
2023-01-26T07:57:29.656Z,18.00
2023-01-26T07:59:57.208Z,18.57
2023-01-26T08:02:26.171Z,17.80
2023-01-26T08:04:53.635Z,16.40
2023-01-26T08:07:21.083Z,15.13
2023-01-26T08:09:48.567Z,17.27
2023-01-26T08:12:16.105Z,16.17
2023-01-26T08:14:47.028Z,14.67
2023-01-26T08:17:17.150Z,16.60
2023-01-26T08:19:46.146Z,14.93
2023-01-26T08:22:13.615Z,14.90
2023-01-26T08:24:41.078Z,16.20
2023-01-26T08:27:08.543Z,16.13
2023-01-26T08:29:36.684Z,19.50
2023-01-26T08:32:04.304Z,15.13
2023-01-26T08:34:32.001Z,17.60
2023-01-26T08:37:01.952Z,15.23
2023-01-26T08:39:29.458Z,15.33
2023-01-26T08:41:57.144Z,16.27
2023-01-26T08:44:24.601Z,15.97
2023-01-26T08:46:52.075Z,16.03
2023-01-26T08:49:19.581Z,18.93
2023-01-26T08:51:47.148Z,19.43
2023-01-26T08:54:16.010Z,14.60
2023-01-26T08:56:43.485Z,18.20
2023-01-26T08:59:11.134Z,20.47
2023-01-26T09:01:38.673Z,21.20
2023-01-26T09:04:06.501Z,19.07
2023-01-26T09:06:33.962Z,18.57
2023-01-26T09:09:01.404Z,14.83
2023-01-26T09:11:30.193Z,14.90
2023-01-26T09:13:57.630Z,17.17
2023-01-26T09:16:25.800Z,15.50
2023-01-26T09:18:54.443Z,18.77
2023-01-26T09:21:23.884Z,18.90
2023-01-26T09:23:51.584Z,17.47
2023-01-26T09:26:19.156Z,16.60
2023-01-26T09:28:51.166Z,13.63
2023-01-26T09:31:18.715Z,13.87
2023-01-26T09:33:46.263Z,13.20
2023-01-26T09:36:13.764Z,14.30
2023-01-26T09:38:41.612Z,14.27
2023-01-26T09:41:30.440Z,13.67
2023-01-26T09:44:05.329Z,12.23
2023-01-26T09:46:44.952Z,14.23
2023-01-26T09:49:18.290Z,12.23
2023-01-26T09:51:51.005Z,12.50
2023-01-26T09:54:28.139Z,14.43
2023-01-26T09:56:56.313Z,11.60
2023-01-26T09:59:37.339Z,14.50
2023-01-26T10:02:21.033Z,12.73
2023-01-26T10:04:52.844Z,14.10
2023-01-26T10:07:20.930Z,13.40
2023-01-26T10:09:53.415Z,12.57
2023-01-26T10:12:25.283Z,13.40
2023-01-26T10:14:59.925Z,13.43
2023-01-26T10:17:31.742Z,11.63
2023-01-26T10:20:04.903Z,10.83
2023-01-26T10:22:41.820Z,10.40
2023-01-26T10:25:15.904Z,10.83
2023-01-26T10:27:45.748Z,11.57
2023-01-26T10:30:16.527Z,12.40
2023-01-26T10:32:46.649Z,12.57
2023-01-26T10:35:19.148Z,16.43
2023-01-26T10:37:47.174Z,12.97
2023-01-26T10:40:15.017Z,13.43
2023-01-26T10:42:54.343Z,12.17
2023-01-26T10:45:29.481Z,9.33
2023-01-26T10:48:05.664Z,10.93
2023-01-26T10:50:33.393Z,12.40
2023-01-26T10:53:02.390Z,12.53
2023-01-26T10:55:31.143Z,17.23
2023-01-26T10:57:58.901Z,14.60
2023-01-26T11:00:29.988Z,11.37
2023-01-26T11:03:06.193Z,11.80
2023-01-26T11:05:34.048Z,12.27
2023-01-26T11:08:03.351Z,10.83
2023-01-26T11:10:33.775Z,11.90
2023-01-26T11:13:13.363Z,11.67
2023-01-26T11:15:44.290Z,13.53
2023-01-26T11:18:23.230Z,12.13
2023-01-26T11:20:57.908Z,11.13
2023-01-26T11:23:52.496Z,12.17
2023-01-26T11:26:36.560Z,12.67
2023-01-26T11:29:23.755Z,9.70
2023-01-26T11:32:00.524Z,13.37
2023-01-26T11:34:36.701Z,9.47
2023-01-26T11:37:30.981Z,10.90
2023-01-26T11:40:09.538Z,11.23
2023-01-26T11:42:47.765Z,11.43
2023-01-26T11:45:29.832Z,9.80
2023-01-26T11:48:18.892Z,10.97
2023-01-26T11:50:48.720Z,10.87
2023-01-26T11:53:31.659Z,11.13
2023-01-26T11:56:16.586Z,9.67
2023-01-26T11:58:50.255Z,9.97
2023-01-26T12:01:25.925Z,10.40
2023-01-26T12:03:54.682Z,8.83
2023-01-26T12:06:31.486Z,10.50
2023-01-26T12:09:03.645Z,10.20
2023-01-26T12:11:38.275Z,9.67
2023-01-26T12:14:18.619Z,11.67
2023-01-26T12:17:16.859Z,10.90
2023-01-26T12:19:54.665Z,11.47
2023-01-26T12:22:29.664Z,12.03
2023-01-26T12:25:20.458Z,12.93
2023-01-26T12:27:57.177Z,10.80
2023-01-26T12:30:36.102Z,11.53
2023-01-26T12:33:03.779Z,9.47
2023-01-26T12:35:45.385Z,10.03
2023-01-26T12:38:18.597Z,12.33
2023-01-26T12:41:00.465Z,12.07
2023-01-26T12:43:41.669Z,10.80
2023-01-26T12:46:10.371Z,8.57
2023-01-26T12:48:43.396Z,9.47
2023-01-26T12:51:19.423Z,10.10
2023-01-26T12:53:54.847Z,10.27
2023-01-26T12:56:26.930Z,9.50
2023-01-26T12:58:56.542Z,9.97
2023-01-26T13:01:26.940Z,8.70
2023-01-26T13:03:57.473Z,9.47
2023-01-26T13:06:28.314Z,11.87
2023-01-26T13:09:20.317Z,9.50
2023-01-26T13:11:50.362Z,9.60
2023-01-26T13:14:33.540Z,11.50
2023-01-26T13:17:34.762Z,10.30
2023-01-26T13:20:22.829Z,9.30
2023-01-26T13:22:52.175Z,8.27
2023-01-26T13:25:27.141Z,9.53
2023-01-26T13:27:57.849Z,7.90
2023-01-26T13:30:34.807Z,8.13
2023-01-26T13:33:12.258Z,9.07
2023-01-26T13:35:40.488Z,8.33
2023-01-26T13:38:16.436Z,8.57
2023-01-26T13:40:47.907Z,9.00
2023-01-26T13:43:27.153Z,9.47
2023-01-26T13:46:06.905Z,9.43
2023-01-26T13:48:43.905Z,8.10
2023-01-26T13:51:16.344Z,8.87
2023-01-26T13:53:49.857Z,8.90
2023-01-26T13:56:27.555Z,7.93
2023-01-26T13:58:55.466Z,9.30
2023-01-26T14:01:23.081Z,8.40
2023-01-26T14:04:04.208Z,8.57
2023-01-26T14:06:32.194Z,9.10
2023-01-26T14:09:01.041Z,7.23
2023-01-26T14:11:33.107Z,9.13
2023-01-26T14:14:02.821Z,11.43
2023-01-26T14:16:34.763Z,7.80
2023-01-26T14:19:15.601Z,8.83
2023-01-26T14:21:48.341Z,9.40
2023-01-26T14:24:17.465Z,7.83
2023-01-26T14:26:45.348Z,8.80
2023-01-26T14:29:19.131Z,8.80
2023-01-26T14:31:47.986Z,9.27
2023-01-26T14:34:20.964Z,9.83
2023-01-26T14:36:48.642Z,9.10
2023-01-26T14:39:20.440Z,8.97
2023-01-26T14:41:49.456Z,8.80
2023-01-26T14:44:17.138Z,9.80
2023-01-26T14:46:53.549Z,10.47
2023-01-26T14:49:25.602Z,10.50
2023-01-26T14:51:57.598Z,8.43
2023-01-26T14:54:31.445Z,12.63
2023-01-26T14:57:00.983Z,9.73
2023-01-26T14:59:34.666Z,9.53
2023-01-26T15:02:16.210Z,10.17
2023-01-26T15:04:47.582Z,10.73
2023-01-26T15:07:34.397Z,10.70
2023-01-26T15:10:04.782Z,7.53
2023-01-26T15:12:34.816Z,9.60
2023-01-26T15:15:03.291Z,7.90
2023-01-26T15:17:37.665Z,10.53
2023-01-26T15:20:12.654Z,8.50
2023-01-26T15:22:40.397Z,11.03
2023-01-26T15:25:19.491Z,11.17
2023-01-26T15:27:51.892Z,10.20
2023-01-26T15:30:22.925Z,9.53
2023-01-26T15:32:50.377Z,12.50
2023-01-26T15:35:27.340Z,11.00
2023-01-26T15:38:02.528Z,9.40
2023-01-26T15:40:31.670Z,11.23
2023-01-26T15:43:11.568Z,10.03
2023-01-26T15:45:43.424Z,10.33
2023-01-26T15:48:10.883Z,10.30
2023-01-26T15:50:38.497Z,11.67
2023-01-26T15:53:06.570Z,11.17
2023-01-26T15:55:36.590Z,11.70
2023-01-26T15:58:04.050Z,9.43
2023-01-26T16:00:31.866Z,12.40
2023-01-26T16:02:59.480Z,11.47
2023-01-26T16:05:27.977Z,10.00
2023-01-26T16:07:55.417Z,12.30
2023-01-26T16:10:22.918Z,12.30
2023-01-26T16:12:51.755Z,10.03
2023-01-26T16:15:28.722Z,11.37
2023-01-26T16:17:56.198Z,12.27
2023-01-26T16:20:23.799Z,12.17
2023-01-26T16:22:51.260Z,10.30
2023-01-26T16:25:24.456Z,11.60
2023-01-26T16:27:54.789Z,11.27
2023-01-26T16:30:22.910Z,12.90
2023-01-26T16:32:50.973Z,8.87
2023-01-26T16:35:20.713Z,10.03
2023-01-26T16:37:48.301Z,11.47
2023-01-26T16:40:17.750Z,11.13
2023-01-26T16:42:47.913Z,11.60
2023-01-26T16:45:19.604Z,13.80
2023-01-26T16:47:50.003Z,18.90
2023-01-26T16:50:17.995Z,15.13
2023-01-26T16:52:45.462Z,13.33
2023-01-26T16:55:15.977Z,11.13
2023-01-26T16:57:45.817Z,9.33
2023-01-26T17:00:16.010Z,13.43
2023-01-26T17:02:48.619Z,11.60
2023-01-26T17:05:17.890Z,11.23
2023-01-26T17:07:45.644Z,9.33
2023-01-26T17:10:15.671Z,10.53
2023-01-26T17:12:43.777Z,9.33
2023-01-26T17:15:13.414Z,10.17
2023-01-26T17:17:42.300Z,8.70
2023-01-26T17:20:18.856Z,10.73
2023-01-26T17:22:47.499Z,9.90
2023-01-26T17:25:16.935Z,11.27
2023-01-26T17:27:46.029Z,9.30
2023-01-26T17:30:14.160Z,9.23
2023-01-26T17:32:42.865Z,12.50
2023-01-26T17:35:12.135Z,10.37
2023-01-26T17:37:40.166Z,10.27
2023-01-26T17:40:09.724Z,11.60
2023-01-26T17:42:37.340Z,10.33
2023-01-26T17:45:06.269Z,9.80
2023-01-26T17:47:34.540Z,10.47
2023-01-26T17:50:02.165Z,11.67
2023-01-26T17:52:35.118Z,11.47
2023-01-26T17:55:05.165Z,10.30
2023-01-26T17:57:32.746Z,12.43
2023-01-26T18:00:00.282Z,13.50
2023-01-26T18:02:27.840Z,12.70
2023-01-26T18:04:55.568Z,14.13
2023-01-26T18:07:24.339Z,13.30
2023-01-26T18:09:53.135Z,12.03
2023-01-26T18:12:20.589Z,14.63
2023-01-26T18:14:48.373Z,12.80
2023-01-26T18:17:15.956Z,11.17
2023-01-26T18:19:43.977Z,9.97
2023-01-26T18:22:11.412Z,13.20
2023-01-26T18:24:38.902Z,13.70
2023-01-26T18:27:07.688Z,12.40
2023-01-26T18:29:35.142Z,12.70
2023-01-26T18:32:02.761Z,12.30
2023-01-26T18:34:30.238Z,10.00
2023-01-26T18:36:57.682Z,9.73
2023-01-26T18:39:25.121Z,11.97
2023-01-26T18:41:52.644Z,10.33
2023-01-26T18:44:22.582Z,13.40
2023-01-26T18:46:50.298Z,9.37
2023-01-26T18:49:18.011Z,10.37
2023-01-26T18:51:48.104Z,11.90
2023-01-26T18:54:16.258Z,10.23
2023-01-26T18:56:43.716Z,10.40
2023-01-26T18:59:12.446Z,7.60
2023-01-26T19:01:41.351Z,11.83
2023-01-26T19:04:08.886Z,10.20
2023-01-26T19:06:36.476Z,8.90
2023-01-26T19:09:06.611Z,10.20
2023-01-26T19:11:35.896Z,9.67
2023-01-26T19:14:04.691Z,9.33
2023-01-26T19:16:33.285Z,12.43
2023-01-26T19:19:02.173Z,11.07
2023-01-26T19:21:31.787Z,9.90
2023-01-26T19:24:02.388Z,10.40
2023-01-26T19:26:30.591Z,9.97
2023-01-26T19:28:59.059Z,11.33
2023-01-26T19:31:27.754Z,10.00
2023-01-26T19:33:57.099Z,10.50
2023-01-26T19:36:27.155Z,10.10
2023-01-26T19:38:54.865Z,12.60
2023-01-26T19:41:23.875Z,10.20
2023-01-26T19:43:52.050Z,9.37
2023-01-26T19:46:20.875Z,9.00
2023-01-26T19:48:49.098Z,9.50
2023-01-26T19:51:18.457Z,9.87
2023-01-26T19:53:49.387Z,10.50
2023-01-26T19:56:18.934Z,9.57
2023-01-26T19:58:50.877Z,8.97
2023-01-26T20:01:18.921Z,8.60
2023-01-26T20:03:50.320Z,9.80
2023-01-26T20:06:20.612Z,9.27
2023-01-26T20:08:50.015Z,9.60
2023-01-26T20:11:18.248Z,8.60
2023-01-26T20:13:45.762Z,10.17
2023-01-26T20:16:13.827Z,9.90
2023-01-26T20:18:41.435Z,9.10
2023-01-26T20:21:08.909Z,9.40
2023-01-26T20:23:37.044Z,10.90
2023-01-26T20:26:09.892Z,7.90
2023-01-26T20:28:40.055Z,9.67
2023-01-26T20:31:08.920Z,7.80
2023-01-26T20:33:38.363Z,8.50
2023-01-26T20:36:07.512Z,8.60
2023-01-26T20:38:40.973Z,8.80
2023-01-26T20:41:12.278Z,7.60
2023-01-26T20:43:49.497Z,8.87
2023-01-26T20:46:20.692Z,8.53
2023-01-26T20:48:48.675Z,8.07
2023-01-26T20:51:18.330Z,9.57
2023-01-26T20:53:47.923Z,9.50
2023-01-26T20:56:21.029Z,9.20
2023-01-26T20:58:48.522Z,8.77
2023-01-26T21:01:17.436Z,8.57
2023-01-26T21:03:45.706Z,9.40
2023-01-26T21:06:14.737Z,9.33
2023-01-26T21:08:42.936Z,9.63
2023-01-26T21:11:14.178Z,9.07
2023-01-26T21:13:43.716Z,9.13
2023-01-26T21:16:13.710Z,7.80
2023-01-26T21:18:41.694Z,7.07
2023-01-26T21:21:13.227Z,8.40
2023-01-26T21:23:40.989Z,8.23
2023-01-26T21:26:11.956Z,7.53
2023-01-26T21:28:39.614Z,7.50
2023-01-26T21:31:10.819Z,7.47
2023-01-26T21:33:40.018Z,8.50
2023-01-26T21:36:09.014Z,9.93
2023-01-26T21:38:39.339Z,7.97
2023-01-26T21:41:29.473Z,7.53
2023-01-26T21:43:57.241Z,8.70
2023-01-26T21:46:26.543Z,8.60
2023-01-26T21:48:53.993Z,7.70
2023-01-26T21:51:39.594Z,8.47
2023-01-26T21:54:07.701Z,7.60
2023-01-26T21:56:35.880Z,8.23
2023-01-26T21:59:05.831Z,9.07
2023-01-26T22:01:36.750Z,8.00
2023-01-26T22:04:07.556Z,8.23
2023-01-26T22:06:35.811Z,8.70
2023-01-26T22:09:03.658Z,8.67
2023-01-26T22:11:35.093Z,8.50
2023-01-26T22:14:02.842Z,10.20
2023-01-26T22:16:30.873Z,10.07
2023-01-26T22:18:59.969Z,7.87
2023-01-26T22:21:28.084Z,8.87
2023-01-26T22:23:55.771Z,9.50
2023-01-26T22:26:24.389Z,8.10
2023-01-26T22:28:53.409Z,9.07
2023-01-26T22:31:23.295Z,10.10
2023-01-26T22:33:51.357Z,9.87
2023-01-26T22:36:21.270Z,10.10
2023-01-26T22:38:49.894Z,10.57
2023-01-26T22:41:20.451Z,8.20
2023-01-26T22:43:49.000Z,9.40
2023-01-26T22:46:17.623Z,7.70
2023-01-26T22:48:45.497Z,9.00
2023-01-26T22:51:15.765Z,10.03
2023-01-26T22:53:46.352Z,8.73
2023-01-26T22:56:14.128Z,8.60
2023-01-26T22:58:55.804Z,9.60
2023-01-26T23:01:26.829Z,9.07
2023-01-26T23:03:55.859Z,9.83
2023-01-26T23:06:24.101Z,9.93
2023-01-26T23:08:54.634Z,9.03
2023-01-26T23:11:24.709Z,10.60
2023-01-26T23:13:53.933Z,10.30
2023-01-26T23:16:23.255Z,8.30
2023-01-26T23:18:51.346Z,10.60
2023-01-26T23:21:19.301Z,10.10
2023-01-26T23:23:46.826Z,7.70
2023-01-26T23:26:15.950Z,8.97
2023-01-26T23:28:44.639Z,9.97
2023-01-26T23:31:14.246Z,8.37
2023-01-26T23:33:41.900Z,10.63
2023-01-26T23:36:11.570Z,8.50
2023-01-26T23:38:39.422Z,9.73
2023-01-26T23:41:08.453Z,8.27
2023-01-26T23:43:37.567Z,8.80
2023-01-26T23:46:06.366Z,9.17
2023-01-26T23:48:33.935Z,8.33
2023-01-26T23:51:03.866Z,9.70
2023-01-26T23:53:31.642Z,7.30
2023-01-26T23:56:00.903Z,9.37
2023-01-26T23:58:28.386Z,8.90
